sensor_id;sensor_type;location;lat;lon;timestamp;temperature;humidity
20204;DHT22;10261;49.010;12.034;2022-07-10T00:00:04;18.00;99.90
20204;DHT22;10261;49.010;12.034;2022-07-10T00:01:07;18.00;99.90
20204;DHT22;10261;49.010;12.034;2022-07-10T00:02:10;18.00;99.90
20204;DHT22;10261;49.010;12.034;2022-07-10T00:03:14;18.00;99.90
20204;DHT22;10261;49.010;12.034;2022-07-10T00:04:18;18.00;99.90
20204;DHT22;10261;49.010;12.034;2022-07-10T00:05:21;18.00;99.90
20204;DHT22;10261;49.010;12.034;2022-07-10T00:06:24;18.00;99.90
20204;DHT22;10261;49.010;12.034;2022-07-10T00:07:26;18.00;99.90
20204;DHT22;10261;49.010;12.034;2022-07-10T00:08:29;17.90;99.90
20204;DHT22;10261;49.010;12.034;2022-07-10T00:09:31;17.90;99.90
20204;DHT22;10261;49.010;12.034;2022-07-10T00:10:35;17.90;99.90
20204;DHT22;10261;49.010;12.034;2022-07-10T00:11:38;18.00;99.90
20204;DHT22;10261;49.010;12.034;2022-07-10T00:12:40;17.90;99.90
20204;DHT22;10261;49.010;12.034;2022-07-10T00:13:43;17.90;99.90
20204;DHT22;10261;49.010;12.034;2022-07-10T00:14:45;17.90;99.90
20204;DHT22;10261;49.010;12.034;2022-07-10T00:15:48;17.90;99.90
20204;DHT22;10261;49.010;12.034;2022-07-10T00:16:50;17.90;99.90
20204;DHT22;10261;49.010;12.034;2022-07-10T00:17:53;17.90;99.90
20204;DHT22;10261;49.010;12.034;2022-07-10T00:18:57;17.90;99.90
20204;DHT22;10261;49.010;12.034;2022-07-10T00:20:00;18.00;99.90
20204;DHT22;10261;49.010;12.034;2022-07-10T00:21:02;17.90;99.90
20204;DHT22;10261;49.010;12.034;2022-07-10T00:22:05;17.90;99.90
20204;DHT22;10261;49.010;12.034;2022-07-10T00:23:07;17.90;99.90
20204;DHT22;10261;49.010;12.034;2022-07-10T00:24:10;17.90;99.90
20204;DHT22;10261;49.010;12.034;2022-07-10T00:25:13;18.50;99.90
20204;DHT22;10261;49.010;12.034;2022-07-10T00:26:16;17.80;99.90
20204;DHT22;10261;49.010;12.034;2022-07-10T00:27:18;17.80;99.90
20204;DHT22;10261;49.010;12.034;2022-07-10T00:28:21;17.80;99.90
20204;DHT22;10261;49.010;12.034;2022-07-10T00:29:25;17.80;99.90
20204;DHT22;10261;49.010;12.034;2022-07-10T00:30:28;17.80;99.90
20204;DHT22;10261;49.010;12.034;2022-07-10T00:31:30;17.80;99.90
20204;DHT22;10261;49.010;12.034;2022-07-10T00:32:33;17.80;99.90
20204;DHT22;10261;49.010;12.034;2022-07-10T00:33:35;17.70;99.90
20204;DHT22;10261;49.010;12.034;2022-07-10T00:34:40;17.70;99.90
20204;DHT22;10261;49.010;12.034;2022-07-10T00:35:42;17.70;99.90
20204;DHT22;10261;49.010;12.034;2022-07-10T00:36:45;17.70;99.90
20204;DHT22;10261;49.010;12.034;2022-07-10T00:37:47;17.60;99.90
20204;DHT22;10261;49.010;12.034;2022-07-10T00:38:50;17.70;99.90
20204;DHT22;10261;49.010;12.034;2022-07-10T00:39:52;17.70;99.90
20204;DHT22;10261;49.010;12.034;2022-07-10T00:40:55;17.70;99.90
20204;DHT22;10261;49.010;12.034;2022-07-10T00:42:06;17.70;99.90
20204;DHT22;10261;49.010;12.034;2022-07-10T00:43:09;17.60;99.90
20204;DHT22;10261;49.010;12.034;2022-07-10T00:44:11;17.60;99.90
20204;DHT22;10261;49.010;12.034;2022-07-10T00:45:14;17.60;99.90
20204;DHT22;10261;49.010;12.034;2022-07-10T00:46:16;17.60;99.90
20204;DHT22;10261;49.010;12.034;2022-07-10T00:47:22;17.70;99.90
20204;DHT22;10261;49.010;12.034;2022-07-10T00:48:24;17.70;99.90
20204;DHT22;10261;49.010;12.034;2022-07-10T00:49:27;17.60;99.90
20204;DHT22;10261;49.010;12.034;2022-07-10T00:50:31;17.60;99.90
20204;DHT22;10261;49.010;12.034;2022-07-10T00:51:37;17.60;99.90
20204;DHT22;10261;49.010;12.034;2022-07-10T00:52:39;17.70;99.90
20204;DHT22;10261;49.010;12.034;2022-07-10T00:53:44;17.60;99.90
20204;DHT22;10261;49.010;12.034;2022-07-10T00:54:48;17.60;99.90
20204;DHT22;10261;49.010;12.034;2022-07-10T00:55:53;17.60;99.90
20204;DHT22;10261;49.010;12.034;2022-07-10T00:56:55;17.60;99.90
20204;DHT22;10261;49.010;12.034;2022-07-10T00:57:59;17.70;99.90
20204;DHT22;10261;49.010;12.034;2022-07-10T00:59:01;17.70;99.90
20204;DHT22;10261;49.010;12.034;2022-07-10T01:00:06;17.70;99.90
20204;DHT22;10261;49.010;12.034;2022-07-10T01:01:09;17.70;99.90
20204;DHT22;10261;49.010;12.034;2022-07-10T01:02:11;17.60;99.90
20204;DHT22;10261;49.010;12.034;2022-07-10T01:03:16;17.70;99.90
20204;DHT22;10261;49.010;12.034;2022-07-10T01:04:19;17.70;99.90
20204;DHT22;10261;49.010;12.034;2022-07-10T01:05:21;17.70;99.90
20204;DHT22;10261;49.010;12.034;2022-07-10T01:06:25;17.70;99.90
20204;DHT22;10261;49.010;12.034;2022-07-10T01:07:28;17.70;99.90
20204;DHT22;10261;49.010;12.034;2022-07-10T01:08:33;17.60;99.90
20204;DHT22;10261;49.010;12.034;2022-07-10T01:09:35;17.60;99.90
20204;DHT22;10261;49.010;12.034;2022-07-10T01:10:39;17.60;99.90
20204;DHT22;10261;49.010;12.034;2022-07-10T01:11:41;17.60;99.90
20204;DHT22;10261;49.010;12.034;2022-07-10T01:12:44;17.60;99.90
20204;DHT22;10261;49.010;12.034;2022-07-10T01:13:47;17.60;99.90
20204;DHT22;10261;49.010;12.034;2022-07-10T01:14:50;17.60;99.90
20204;DHT22;10261;49.010;12.034;2022-07-10T01:15:52;17.50;99.90
20204;DHT22;10261;49.010;12.034;2022-07-10T01:16:56;17.50;99.90
20204;DHT22;10261;49.010;12.034;2022-07-10T01:17:58;17.50;99.90
20204;DHT22;10261;49.010;12.034;2022-07-10T01:19:02;17.50;99.90
20204;DHT22;10261;49.010;12.034;2022-07-10T01:20:05;17.50;99.90
20204;DHT22;10261;49.010;12.034;2022-07-10T01:22:37;17.50;99.90
20204;DHT22;10261;49.010;12.034;2022-07-10T01:23:41;17.50;99.90
20204;DHT22;10261;49.010;12.034;2022-07-10T01:24:43;17.50;99.90
20204;DHT22;10261;49.010;12.034;2022-07-10T01:25:46;17.50;99.90
20204;DHT22;10261;49.010;12.034;2022-07-10T01:26:49;17.50;99.90
20204;DHT22;10261;49.010;12.034;2022-07-10T01:27:52;17.50;99.90
20204;DHT22;10261;49.010;12.034;2022-07-10T01:28:55;17.60;99.90
20204;DHT22;10261;49.010;12.034;2022-07-10T01:29:58;17.60;99.90
20204;DHT22;10261;49.010;12.034;2022-07-10T01:31:01;17.50;99.90
20204;DHT22;10261;49.010;12.034;2022-07-10T01:32:05;17.50;99.90
20204;DHT22;10261;49.010;12.034;2022-07-10T01:33:07;17.50;99.90
20204;DHT22;10261;49.010;12.034;2022-07-10T01:34:10;17.50;99.90
20204;DHT22;10261;49.010;12.034;2022-07-10T01:35:13;17.50;99.90
20204;DHT22;10261;49.010;12.034;2022-07-10T01:36:16;17.50;99.90
20204;DHT22;10261;49.010;12.034;2022-07-10T01:37:19;17.50;99.90
20204;DHT22;10261;49.010;12.034;2022-07-10T01:38:23;17.60;99.90
20204;DHT22;10261;49.010;12.034;2022-07-10T01:39:25;17.50;99.90
20204;DHT22;10261;49.010;12.034;2022-07-10T01:40:28;17.50;99.90
20204;DHT22;10261;49.010;12.034;2022-07-10T01:41:31;17.60;99.90
20204;DHT22;10261;49.010;12.034;2022-07-10T01:42:34;17.60;99.90
20204;DHT22;10261;49.010;12.034;2022-07-10T01:43:36;17.60;99.90
20204;DHT22;10261;49.010;12.034;2022-07-10T01:44:39;17.60;99.90
20204;DHT22;10261;49.010;12.034;2022-07-10T01:45:41;17.60;99.90
20204;DHT22;10261;49.010;12.034;2022-07-10T01:46:46;17.60;99.90
20204;DHT22;10261;49.010;12.034;2022-07-10T01:47:48;17.60;99.90
20204;DHT22;10261;49.010;12.034;2022-07-10T01:48:51;17.60;99.90
20204;DHT22;10261;49.010;12.034;2022-07-10T01:49:54;17.60;99.90
20204;DHT22;10261;49.010;12.034;2022-07-10T01:50:57;17.60;99.90
20204;DHT22;10261;49.010;12.034;2022-07-10T01:51:59;17.60;99.90
20204;DHT22;10261;49.010;12.034;2022-07-10T01:53:02;17.60;99.90
20204;DHT22;10261;49.010;12.034;2022-07-10T01:54:09;17.60;99.90
20204;DHT22;10261;49.010;12.034;2022-07-10T01:55:12;17.70;99.90
20204;DHT22;10261;49.010;12.034;2022-07-10T01:56:15;17.60;99.90
20204;DHT22;10261;49.010;12.034;2022-07-10T01:57:18;17.60;99.90
20204;DHT22;10261;49.010;12.034;2022-07-10T01:58:20;17.60;99.90
20204;DHT22;10261;49.010;12.034;2022-07-10T01:59:23;17.60;99.90
20204;DHT22;10261;49.010;12.034;2022-07-10T02:00:27;17.60;99.90
20204;DHT22;10261;49.010;12.034;2022-07-10T02:01:31;17.60;99.90
20204;DHT22;10261;49.010;12.034;2022-07-10T02:02:33;17.60;99.90
20204;DHT22;10261;49.010;12.034;2022-07-10T02:03:36;17.70;99.90
20204;DHT22;10261;49.010;12.034;2022-07-10T02:04:57;17.60;99.90
20204;DHT22;10261;49.010;12.034;2022-07-10T02:05:59;17.70;99.90
20204;DHT22;10261;49.010;12.034;2022-07-10T02:07:01;17.60;99.90
20204;DHT22;10261;49.010;12.034;2022-07-10T02:08:04;17.60;99.90
20204;DHT22;10261;49.010;12.034;2022-07-10T02:09:09;17.60;99.90
20204;DHT22;10261;49.010;12.034;2022-07-10T02:10:12;17.60;99.90
20204;DHT22;10261;49.010;12.034;2022-07-10T02:11:14;17.60;99.90
20204;DHT22;10261;49.010;12.034;2022-07-10T02:12:17;17.60;99.90
20204;DHT22;10261;49.010;12.034;2022-07-10T02:13:20;17.50;99.90
20204;DHT22;10261;49.010;12.034;2022-07-10T02:14:22;17.60;99.90
20204;DHT22;10261;49.010;12.034;2022-07-10T02:15:25;17.50;99.90
20204;DHT22;10261;49.010;12.034;2022-07-10T02:16:27;17.50;99.90
20204;DHT22;10261;49.010;12.034;2022-07-10T02:17:30;17.50;99.90
20204;DHT22;10261;49.010;12.034;2022-07-10T02:18:32;17.50;99.90
20204;DHT22;10261;49.010;12.034;2022-07-10T02:19:35;17.50;99.90
20204;DHT22;10261;49.010;12.034;2022-07-10T02:20:37;17.50;99.90
20204;DHT22;10261;49.010;12.034;2022-07-10T02:21:41;17.50;99.90
20204;DHT22;10261;49.010;12.034;2022-07-10T02:22:43;17.50;99.90
20204;DHT22;10261;49.010;12.034;2022-07-10T02:23:46;17.50;99.90
20204;DHT22;10261;49.010;12.034;2022-07-10T02:24:49;17.50;99.90
20204;DHT22;10261;49.010;12.034;2022-07-10T02:25:52;17.50;99.90
20204;DHT22;10261;49.010;12.034;2022-07-10T02:26:54;17.50;99.90
20204;DHT22;10261;49.010;12.034;2022-07-10T02:27:58;17.50;99.90
20204;DHT22;10261;49.010;12.034;2022-07-10T02:29:00;17.40;99.90
20204;DHT22;10261;49.010;12.034;2022-07-10T02:30:04;17.30;99.90
20204;DHT22;10261;49.010;12.034;2022-07-10T02:31:06;17.30;99.90
20204;DHT22;10261;49.010;12.034;2022-07-10T02:32:09;17.30;99.90
20204;DHT22;10261;49.010;12.034;2022-07-10T02:33:11;17.30;99.90
20204;DHT22;10261;49.010;12.034;2022-07-10T02:34:14;17.30;99.90
20204;DHT22;10261;49.010;12.034;2022-07-10T02:35:18;17.30;99.90
20204;DHT22;10261;49.010;12.034;2022-07-10T02:36:20;17.30;99.90
20204;DHT22;10261;49.010;12.034;2022-07-10T02:37:23;17.30;99.90
20204;DHT22;10261;49.010;12.034;2022-07-10T02:38:25;17.30;99.90
20204;DHT22;10261;49.010;12.034;2022-07-10T02:39:28;17.20;99.90
20204;DHT22;10261;49.010;12.034;2022-07-10T02:40:31;17.30;99.90
20204;DHT22;10261;49.010;12.034;2022-07-10T02:41:35;17.30;99.90
20204;DHT22;10261;49.010;12.034;2022-07-10T02:42:37;17.30;99.90
20204;DHT22;10261;49.010;12.034;2022-07-10T02:43:40;17.30;99.90
20204;DHT22;10261;49.010;12.034;2022-07-10T02:44:42;17.30;99.90
20204;DHT22;10261;49.010;12.034;2022-07-10T02:45:45;17.30;99.90
20204;DHT22;10261;49.010;12.034;2022-07-10T02:46:48;17.20;99.90
20204;DHT22;10261;49.010;12.034;2022-07-10T02:47:51;17.20;99.90
20204;DHT22;10261;49.010;12.034;2022-07-10T02:48:53;17.20;99.90
20204;DHT22;10261;49.010;12.034;2022-07-10T02:49:56;17.20;99.90
20204;DHT22;10261;49.010;12.034;2022-07-10T02:50:58;17.20;99.90
20204;DHT22;10261;49.010;12.034;2022-07-10T02:52:01;17.30;99.90
20204;DHT22;10261;49.010;12.034;2022-07-10T02:53:03;17.30;99.90
20204;DHT22;10261;49.010;12.034;2022-07-10T02:54:06;17.30;99.90
20204;DHT22;10261;49.010;12.034;2022-07-10T02:55:09;17.30;99.90
20204;DHT22;10261;49.010;12.034;2022-07-10T02:56:13;17.30;99.90
20204;DHT22;10261;49.010;12.034;2022-07-10T02:57:15;17.20;99.90
20204;DHT22;10261;49.010;12.034;2022-07-10T02:58:18;17.20;99.90
20204;DHT22;10261;49.010;12.034;2022-07-10T02:59:21;17.10;99.90
20204;DHT22;10261;49.010;12.034;2022-07-10T03:00:24;17.10;99.90
20204;DHT22;10261;49.010;12.034;2022-07-10T03:01:27;17.10;99.90
20204;DHT22;10261;49.010;12.034;2022-07-10T03:02:30;17.10;99.90
20204;DHT22;10261;49.010;12.034;2022-07-10T03:03:32;17.10;99.90
20204;DHT22;10261;49.010;12.034;2022-07-10T03:04:35;17.20;99.90
20204;DHT22;10261;49.010;12.034;2022-07-10T03:05:37;17.20;99.90
20204;DHT22;10261;49.010;12.034;2022-07-10T03:06:40;17.20;99.90
20204;DHT22;10261;49.010;12.034;2022-07-10T03:07:42;17.20;99.90
20204;DHT22;10261;49.010;12.034;2022-07-10T03:08:45;17.20;99.90
20204;DHT22;10261;49.010;12.034;2022-07-10T03:09:47;17.10;99.90
20204;DHT22;10261;49.010;12.034;2022-07-10T03:10:51;17.20;99.90
20204;DHT22;10261;49.010;12.034;2022-07-10T03:11:54;17.20;99.90
20204;DHT22;10261;49.010;12.034;2022-07-10T03:12:57;17.30;99.90
20204;DHT22;10261;49.010;12.034;2022-07-10T03:13:59;17.30;99.90
20204;DHT22;10261;49.010;12.034;2022-07-10T03:15:02;17.30;99.90
20204;DHT22;10261;49.010;12.034;2022-07-10T03:16:05;17.30;99.90
20204;DHT22;10261;49.010;12.034;2022-07-10T03:17:08;17.30;99.90
20204;DHT22;10261;49.010;12.034;2022-07-10T03:18:10;17.30;99.90
20204;DHT22;10261;49.010;12.034;2022-07-10T03:19:13;17.30;99.90
20204;DHT22;10261;49.010;12.034;2022-07-10T03:20:15;17.30;99.90
20204;DHT22;10261;49.010;12.034;2022-07-10T03:21:18;17.40;99.90
20204;DHT22;10261;49.010;12.034;2022-07-10T03:22:20;17.40;99.90
20204;DHT22;10261;49.010;12.034;2022-07-10T03:23:23;17.40;99.90
20204;DHT22;10261;49.010;12.034;2022-07-10T03:24:25;17.40;99.90
20204;DHT22;10261;49.010;12.034;2022-07-10T03:25:28;17.50;99.90
20204;DHT22;10261;49.010;12.034;2022-07-10T03:26:30;17.50;99.90
20204;DHT22;10261;49.010;12.034;2022-07-10T03:27:35;17.50;99.90
20204;DHT22;10261;49.010;12.034;2022-07-10T03:28:37;17.50;99.90
20204;DHT22;10261;49.010;12.034;2022-07-10T03:29:40;17.50;99.90
20204;DHT22;10261;49.010;12.034;2022-07-10T03:30:43;17.50;99.90
20204;DHT22;10261;49.010;12.034;2022-07-10T03:31:46;17.50;99.90
20204;DHT22;10261;49.010;12.034;2022-07-10T03:32:48;17.50;99.90
20204;DHT22;10261;49.010;12.034;2022-07-10T03:33:51;17.50;99.90
20204;DHT22;10261;49.010;12.034;2022-07-10T03:34:54;17.50;99.90
20204;DHT22;10261;49.010;12.034;2022-07-10T03:35:57;17.50;99.90
20204;DHT22;10261;49.010;12.034;2022-07-10T03:36:59;17.50;99.90
20204;DHT22;10261;49.010;12.034;2022-07-10T03:38:02;17.50;99.90
20204;DHT22;10261;49.010;12.034;2022-07-10T03:39:04;17.50;99.90
20204;DHT22;10261;49.010;12.034;2022-07-10T03:40:08;17.50;99.90
20204;DHT22;10261;49.010;12.034;2022-07-10T03:41:11;17.50;99.90
20204;DHT22;10261;49.010;12.034;2022-07-10T03:42:14;17.50;99.90
20204;DHT22;10261;49.010;12.034;2022-07-10T03:43:18;17.50;99.90
20204;DHT22;10261;49.010;12.034;2022-07-10T03:44:20;17.50;99.90
20204;DHT22;10261;49.010;12.034;2022-07-10T03:45:23;17.50;99.90
20204;DHT22;10261;49.010;12.034;2022-07-10T03:46:25;17.50;99.90
20204;DHT22;10261;49.010;12.034;2022-07-10T03:47:28;17.50;99.90
20204;DHT22;10261;49.010;12.034;2022-07-10T03:48:31;17.50;99.90
20204;DHT22;10261;49.010;12.034;2022-07-10T03:49:35;17.60;99.90
20204;DHT22;10261;49.010;12.034;2022-07-10T03:50:37;17.60;99.90
20204;DHT22;10261;49.010;12.034;2022-07-10T03:51:40;17.60;99.90
20204;DHT22;10261;49.010;12.034;2022-07-10T03:52:42;17.60;99.90
20204;DHT22;10261;49.010;12.034;2022-07-10T03:53:46;17.60;99.90
20204;DHT22;10261;49.010;12.034;2022-07-10T03:54:48;17.50;99.90
20204;DHT22;10261;49.010;12.034;2022-07-10T03:55:51;17.50;99.90
20204;DHT22;10261;49.010;12.034;2022-07-10T03:56:53;17.50;99.90
20204;DHT22;10261;49.010;12.034;2022-07-10T03:58:13;17.50;99.90
20204;DHT22;10261;49.010;12.034;2022-07-10T03:59:18;17.40;99.90
20204;DHT22;10261;49.010;12.034;2022-07-10T04:00:20;17.50;99.90
20204;DHT22;10261;49.010;12.034;2022-07-10T04:01:25;17.50;99.90
20204;DHT22;10261;49.010;12.034;2022-07-10T04:02:27;17.50;99.90
20204;DHT22;10261;49.010;12.034;2022-07-10T04:03:30;17.50;99.90
20204;DHT22;10261;49.010;12.034;2022-07-10T04:04:32;17.50;99.90
20204;DHT22;10261;49.010;12.034;2022-07-10T04:05:35;17.50;99.90
20204;DHT22;10261;49.010;12.034;2022-07-10T04:06:37;17.50;99.90
20204;DHT22;10261;49.010;12.034;2022-07-10T04:07:41;17.60;99.90
20204;DHT22;10261;49.010;12.034;2022-07-10T04:08:43;17.50;99.90
20204;DHT22;10261;49.010;12.034;2022-07-10T04:09:46;17.50;99.90
20204;DHT22;10261;49.010;12.034;2022-07-10T04:10:49;17.50;99.90
20204;DHT22;10261;49.010;12.034;2022-07-10T04:11:51;17.50;99.90
20204;DHT22;10261;49.010;12.034;2022-07-10T04:12:54;17.40;99.90
20204;DHT22;10261;49.010;12.034;2022-07-10T04:13:57;17.40;99.90
20204;DHT22;10261;49.010;12.034;2022-07-10T04:15:01;17.40;99.90
20204;DHT22;10261;49.010;12.034;2022-07-10T04:16:03;17.50;99.90
20204;DHT22;10261;49.010;12.034;2022-07-10T04:17:07;17.50;99.90
20204;DHT22;10261;49.010;12.034;2022-07-10T04:18:09;17.50;99.90
20204;DHT22;10261;49.010;12.034;2022-07-10T04:19:12;17.60;99.90
20204;DHT22;10261;49.010;12.034;2022-07-10T04:20:15;17.60;99.90
20204;DHT22;10261;49.010;12.034;2022-07-10T04:21:18;17.60;99.90
20204;DHT22;10261;49.010;12.034;2022-07-10T04:22:20;17.60;99.90
20204;DHT22;10261;49.010;12.034;2022-07-10T04:23:23;17.60;99.90
20204;DHT22;10261;49.010;12.034;2022-07-10T04:24:25;17.60;99.90
20204;DHT22;10261;49.010;12.034;2022-07-10T04:25:28;17.60;99.90
20204;DHT22;10261;49.010;12.034;2022-07-10T04:26:31;17.50;99.90
20204;DHT22;10261;49.010;12.034;2022-07-10T04:27:34;17.50;99.90
20204;DHT22;10261;49.010;12.034;2022-07-10T04:28:37;17.50;99.90
20204;DHT22;10261;49.010;12.034;2022-07-10T04:29:39;17.50;99.90
20204;DHT22;10261;49.010;12.034;2022-07-10T04:30:43;17.50;99.90
20204;DHT22;10261;49.010;12.034;2022-07-10T04:31:45;17.50;99.90
20204;DHT22;10261;49.010;12.034;2022-07-10T04:32:49;17.50;99.90
20204;DHT22;10261;49.010;12.034;2022-07-10T04:33:51;17.50;99.90
20204;DHT22;10261;49.010;12.034;2022-07-10T04:34:54;17.50;99.90
20204;DHT22;10261;49.010;12.034;2022-07-10T04:35:56;17.50;99.90
20204;DHT22;10261;49.010;12.034;2022-07-10T04:36:59;17.50;99.90
20204;DHT22;10261;49.010;12.034;2022-07-10T04:38:01;17.50;99.90
20204;DHT22;10261;49.010;12.034;2022-07-10T04:39:05;17.50;99.90
20204;DHT22;10261;49.010;12.034;2022-07-10T04:40:08;17.50;99.90
20204;DHT22;10261;49.010;12.034;2022-07-10T04:41:11;17.50;99.90
20204;DHT22;10261;49.010;12.034;2022-07-10T04:42:13;17.50;99.90
20204;DHT22;10261;49.010;12.034;2022-07-10T04:43:16;17.50;99.90
20204;DHT22;10261;49.010;12.034;2022-07-10T04:44:19;17.50;99.90
20204;DHT22;10261;49.010;12.034;2022-07-10T04:45:21;17.50;99.90
20204;DHT22;10261;49.010;12.034;2022-07-10T04:46:26;17.50;99.90
20204;DHT22;10261;49.010;12.034;2022-07-10T04:47:28;17.40;99.90
20204;DHT22;10261;49.010;12.034;2022-07-10T04:48:31;17.40;99.90
20204;DHT22;10261;49.010;12.034;2022-07-10T04:49:34;17.40;99.90
20204;DHT22;10261;49.010;12.034;2022-07-10T04:50:37;17.40;99.90
20204;DHT22;10261;49.010;12.034;2022-07-10T04:51:39;17.40;99.90
20204;DHT22;10261;49.010;12.034;2022-07-10T04:52:47;17.40;99.90
20204;DHT22;10261;49.010;12.034;2022-07-10T04:53:49;17.50;99.90
20204;DHT22;10261;49.010;12.034;2022-07-10T04:54:52;17.50;99.90
20204;DHT22;10261;49.010;12.034;2022-07-10T04:55:54;17.50;99.90
20204;DHT22;10261;49.010;12.034;2022-07-10T04:56:57;17.50;99.90
20204;DHT22;10261;49.010;12.034;2022-07-10T04:57:59;17.50;99.90
20204;DHT22;10261;49.010;12.034;2022-07-10T04:59:02;17.50;99.90
20204;DHT22;10261;49.010;12.034;2022-07-10T05:00:05;17.50;99.90
20204;DHT22;10261;49.010;12.034;2022-07-10T05:01:09;17.50;99.90
20204;DHT22;10261;49.010;12.034;2022-07-10T05:02:12;17.60;99.90
20204;DHT22;10261;49.010;12.034;2022-07-10T05:03:15;17.60;99.90
20204;DHT22;10261;49.010;12.034;2022-07-10T05:04:17;17.60;99.90
20204;DHT22;10261;49.010;12.034;2022-07-10T05:05:20;17.50;99.90
20204;DHT22;10261;49.010;12.034;2022-07-10T05:06:23;17.50;99.90
20204;DHT22;10261;49.010;12.034;2022-07-10T05:07:26;17.60;99.90
20204;DHT22;10261;49.010;12.034;2022-07-10T05:08:29;17.60;99.90
20204;DHT22;10261;49.010;12.034;2022-07-10T05:09:32;17.60;99.90
20204;DHT22;10261;49.010;12.034;2022-07-10T05:10:34;17.60;99.90
20204;DHT22;10261;49.010;12.034;2022-07-10T05:11:37;17.60;99.90
20204;DHT22;10261;49.010;12.034;2022-07-10T05:12:39;17.50;99.90
20204;DHT22;10261;49.010;12.034;2022-07-10T05:13:42;17.50;99.90
20204;DHT22;10261;49.010;12.034;2022-07-10T05:14:47;17.50;99.90
20204;DHT22;10261;49.010;12.034;2022-07-10T05:15:50;17.50;99.90
20204;DHT22;10261;49.010;12.034;2022-07-10T05:16:53;17.50;99.90
20204;DHT22;10261;49.010;12.034;2022-07-10T05:17:57;17.60;99.90
20204;DHT22;10261;49.010;12.034;2022-07-10T05:18:59;17.60;99.90
20204;DHT22;10261;49.010;12.034;2022-07-10T05:20:03;17.60;99.90
20204;DHT22;10261;49.010;12.034;2022-07-10T05:21:05;17.60;99.90
20204;DHT22;10261;49.010;12.034;2022-07-10T05:22:08;17.50;99.90
20204;DHT22;10261;49.010;12.034;2022-07-10T05:23:11;17.50;99.90
20204;DHT22;10261;49.010;12.034;2022-07-10T05:24:14;17.40;99.90
20204;DHT22;10261;49.010;12.034;2022-07-10T05:25:16;17.40;99.90
20204;DHT22;10261;49.010;12.034;2022-07-10T05:26:19;17.40;99.90
20204;DHT22;10261;49.010;12.034;2022-07-10T05:27:21;17.40;99.90
20204;DHT22;10261;49.010;12.034;2022-07-10T05:28:25;17.40;99.90
20204;DHT22;10261;49.010;12.034;2022-07-10T05:29:27;17.40;99.90
20204;DHT22;10261;49.010;12.034;2022-07-10T05:30:30;17.40;99.90
20204;DHT22;10261;49.010;12.034;2022-07-10T05:31:32;17.40;99.90
20204;DHT22;10261;49.010;12.034;2022-07-10T05:32:42;17.40;99.90
20204;DHT22;10261;49.010;12.034;2022-07-10T05:33:46;17.50;99.90
20204;DHT22;10261;49.010;12.034;2022-07-10T05:34:49;17.60;99.90
20204;DHT22;10261;49.010;12.034;2022-07-10T05:35:51;17.60;99.90
20204;DHT22;10261;49.010;12.034;2022-07-10T05:36:54;17.60;99.90
20204;DHT22;10261;49.010;12.034;2022-07-10T05:37:56;17.60;99.90
20204;DHT22;10261;49.010;12.034;2022-07-10T05:38:59;17.60;99.90
20204;DHT22;10261;49.010;12.034;2022-07-10T05:40:02;17.60;99.90
20204;DHT22;10261;49.010;12.034;2022-07-10T05:41:05;17.60;99.90
20204;DHT22;10261;49.010;12.034;2022-07-10T05:42:07;17.70;99.90
20204;DHT22;10261;49.010;12.034;2022-07-10T05:43:10;17.70;99.90
20204;DHT22;10261;49.010;12.034;2022-07-10T05:44:13;17.70;99.90
20204;DHT22;10261;49.010;12.034;2022-07-10T05:45:17;17.70;99.90
20204;DHT22;10261;49.010;12.034;2022-07-10T05:46:19;17.70;99.90
20204;DHT22;10261;49.010;12.034;2022-07-10T05:47:22;17.70;99.90
20204;DHT22;10261;49.010;12.034;2022-07-10T05:48:24;17.60;99.90
20204;DHT22;10261;49.010;12.034;2022-07-10T05:49:28;17.70;99.90
20204;DHT22;10261;49.010;12.034;2022-07-10T05:50:30;17.70;99.90
20204;DHT22;10261;49.010;12.034;2022-07-10T05:51:33;17.70;99.90
20204;DHT22;10261;49.010;12.034;2022-07-10T05:52:46;17.70;99.90
20204;DHT22;10261;49.010;12.034;2022-07-10T05:53:49;17.70;99.90
20204;DHT22;10261;49.010;12.034;2022-07-10T05:54:51;17.70;99.90
20204;DHT22;10261;49.010;12.034;2022-07-10T05:55:59;17.70;99.90
20204;DHT22;10261;49.010;12.034;2022-07-10T05:57:01;17.70;99.90
20204;DHT22;10261;49.010;12.034;2022-07-10T05:58:04;17.70;99.90
20204;DHT22;10261;49.010;12.034;2022-07-10T05:59:06;17.70;99.90
20204;DHT22;10261;49.010;12.034;2022-07-10T06:00:10;17.70;99.90
20204;DHT22;10261;49.010;12.034;2022-07-10T06:01:12;17.70;99.90
20204;DHT22;10261;49.010;12.034;2022-07-10T06:02:15;17.70;99.90
20204;DHT22;10261;49.010;12.034;2022-07-10T06:03:25;17.70;99.90
20204;DHT22;10261;49.010;12.034;2022-07-10T06:04:29;17.80;99.90
20204;DHT22;10261;49.010;12.034;2022-07-10T06:05:32;17.70;99.90
20204;DHT22;10261;49.010;12.034;2022-07-10T06:06:35;17.80;99.90
20204;DHT22;10261;49.010;12.034;2022-07-10T06:07:37;17.70;99.90
20204;DHT22;10261;49.010;12.034;2022-07-10T06:08:40;17.80;99.90
20204;DHT22;10261;49.010;12.034;2022-07-10T06:09:43;17.80;99.90
20204;DHT22;10261;49.010;12.034;2022-07-10T06:10:46;17.80;99.90
20204;DHT22;10261;49.010;12.034;2022-07-10T06:11:48;17.70;99.90
20204;DHT22;10261;49.010;12.034;2022-07-10T06:12:51;17.80;99.90
20204;DHT22;10261;49.010;12.034;2022-07-10T06:13:53;17.70;99.90
20204;DHT22;10261;49.010;12.034;2022-07-10T06:14:56;17.80;99.90
20204;DHT22;10261;49.010;12.034;2022-07-10T06:15:58;17.80;99.90
20204;DHT22;10261;49.010;12.034;2022-07-10T06:17:01;17.80;99.90
20204;DHT22;10261;49.010;12.034;2022-07-10T06:18:03;17.80;99.90
20204;DHT22;10261;49.010;12.034;2022-07-10T06:19:06;17.80;99.90
20204;DHT22;10261;49.010;12.034;2022-07-10T06:20:11;17.80;99.90
20204;DHT22;10261;49.010;12.034;2022-07-10T06:22:16;17.70;99.90
20204;DHT22;10261;49.010;12.034;2022-07-10T06:23:35;17.70;99.90
20204;DHT22;10261;49.010;12.034;2022-07-10T06:24:37;17.70;99.90
20204;DHT22;10261;49.010;12.034;2022-07-10T06:26:44;17.80;99.90
20204;DHT22;10261;49.010;12.034;2022-07-10T06:27:46;17.80;99.90
20204;DHT22;10261;49.010;12.034;2022-07-10T06:28:49;17.80;99.90
20204;DHT22;10261;49.010;12.034;2022-07-10T06:30:54;17.70;99.90
20204;DHT22;10261;49.010;12.034;2022-07-10T06:32:01;17.70;99.90
20204;DHT22;10261;49.010;12.034;2022-07-10T06:34:08;17.60;99.90
20204;DHT22;10261;49.010;12.034;2022-07-10T06:35:11;17.70;99.90
20204;DHT22;10261;49.010;12.034;2022-07-10T06:36:14;17.70;99.90
20204;DHT22;10261;49.010;12.034;2022-07-10T06:37:20;17.70;99.90